createdAt,value
2023-01-23T00:04:34.436Z,98.58
2023-01-23T00:09:36.553Z,99.33
2023-01-23T00:14:40.006Z,99.28
2023-01-23T00:19:41.996Z,98.80
2023-01-23T00:24:44.062Z,99.24
2023-01-23T00:29:47.562Z,99.55
2023-01-23T00:34:49.708Z,99.01
2023-01-23T00:39:51.665Z,98.71
2023-01-23T00:44:55.107Z,99.54
2023-01-23T00:49:57.258Z,99.97
2023-01-23T00:54:59.374Z,99.36
2023-01-23T01:00:03.741Z,99.03
2023-01-23T01:05:06.842Z,99.01
2023-01-23T01:10:12.707Z,99.21
2023-01-23T01:15:16.507Z,99.33
2023-01-23T01:20:18.933Z,99.24
2023-01-23T01:25:21.998Z,99.15
2023-01-23T01:30:25.786Z,99.31
2023-01-23T01:35:27.521Z,99.64
2023-01-23T01:40:34.030Z,99.18
2023-01-23T01:46:10.821Z,99.19
2023-01-23T01:51:19.624Z,98.67
2023-01-23T01:56:22.167Z,98.76
2023-01-23T02:01:26.792Z,99.29
2023-01-23T02:06:29.356Z,99.15
2023-01-23T02:11:31.542Z,99.18
2023-01-23T02:16:37.222Z,98.90
2023-01-23T02:21:41.594Z,99.29
2023-01-23T02:26:46.860Z,98.85
2023-01-23T02:31:49.017Z,98.89
2023-01-23T02:36:51.248Z,98.85
2023-01-23T02:41:56.549Z,99.08
2023-01-23T02:47:01.232Z,99.30
2023-01-23T02:52:03.444Z,98.91
2023-01-23T02:57:07.006Z,98.43
2023-01-23T03:02:09.528Z,98.63
2023-01-23T03:07:11.471Z,99.39
2023-01-23T03:12:14.910Z,98.85
2023-01-23T03:17:17.011Z,99.11
2023-01-23T03:22:19.092Z,98.90
2023-01-23T03:27:22.227Z,98.72
2023-01-23T03:32:24.132Z,99.01
2023-01-23T03:37:26.113Z,99.55
2023-01-23T03:42:29.740Z,99.38
2023-01-23T03:47:31.698Z,99.10
2023-01-23T03:52:33.680Z,99.02
2023-01-23T03:57:39.347Z,99.28
2023-01-23T04:02:41.232Z,98.93
2023-01-23T04:07:43.659Z,98.74
2023-01-23T04:12:47.097Z,98.58
2023-01-23T04:17:49.222Z,98.93
2023-01-23T04:22:51.417Z,98.91
2023-01-23T04:27:54.675Z,99.36
2023-01-23T04:32:56.743Z,99.52
2023-01-23T04:37:58.902Z,99.34
2023-01-23T04:43:02.721Z,98.91
2023-01-23T04:48:05.474Z,99.06
2023-01-23T04:53:07.757Z,98.68
2023-01-23T04:58:11.168Z,98.98
2023-01-23T05:03:13.789Z,98.61
2023-01-23T05:08:16.144Z,98.57
2023-01-23T05:13:19.743Z,99.16
2023-01-23T05:18:21.779Z,98.66
2023-01-23T05:23:23.990Z,98.86
2023-01-23T05:28:27.627Z,98.59
2023-01-23T05:33:29.485Z,98.67
2023-01-23T05:38:31.429Z,98.79
2023-01-23T05:43:34.853Z,98.69
2023-01-23T05:48:36.964Z,98.89
2023-01-23T05:53:39.022Z,98.84
2023-01-23T05:58:42.651Z,98.31
2023-01-23T06:03:45.150Z,98.59
2023-01-23T06:08:47.558Z,98.55
2023-01-23T06:13:51.081Z,98.13
2023-01-23T06:18:53.304Z,98.16
2023-01-23T06:23:55.152Z,98.43
2023-01-23T06:28:58.835Z,98.63
2023-01-23T06:34:00.919Z,98.92
2023-01-23T06:39:03.119Z,99.21
2023-01-23T06:44:06.546Z,99.62
2023-01-23T06:49:08.508Z,99.43
2023-01-23T06:54:10.780Z,99.35
2023-01-23T06:59:14.403Z,99.32
2023-01-23T07:04:16.619Z,99.70
2023-01-23T07:09:19.102Z,98.85
2023-01-23T07:14:22.967Z,98.63
2023-01-23T07:19:25.086Z,99.02
2023-01-23T07:24:26.888Z,99.60
2023-01-23T07:29:30.326Z,99.15
2023-01-23T07:34:32.668Z,98.00
2023-01-23T07:39:34.780Z,97.82
2023-01-23T07:44:38.236Z,97.77
2023-01-23T07:49:40.517Z,96.92
2023-01-23T07:54:42.241Z,96.37
2023-01-23T07:59:47.341Z,96.64
2023-01-23T08:04:49.506Z,96.97
2023-01-23T08:09:51.526Z,96.92
2023-01-23T08:14:54.884Z,96.39
2023-01-23T08:19:56.985Z,95.42
2023-01-23T08:24:59.083Z,95.20
2023-01-23T08:30:02.701Z,95.44
2023-01-23T08:35:05.637Z,95.25
2023-01-23T08:40:09.093Z,95.45
2023-01-23T08:45:12.638Z,96.20
2023-01-23T08:50:15.121Z,96.72
2023-01-23T08:55:17.476Z,96.38
2023-01-23T09:00:23.038Z,95.71
2023-01-23T09:05:25.127Z,95.70
2023-01-23T09:10:27.508Z,94.56
2023-01-23T09:15:31.468Z,95.09
2023-01-23T09:20:33.972Z,94.85
2023-01-23T09:25:37.736Z,94.29
2023-01-23T09:30:41.566Z,94.26
2023-01-23T09:35:43.683Z,94.61
2023-01-23T09:40:49.944Z,93.69
2023-01-23T09:46:03.197Z,94.13
2023-01-23T09:51:12.991Z,94.95
2023-01-23T09:56:28.533Z,94.81
2023-01-23T10:01:31.931Z,93.76
2023-01-23T10:06:54.350Z,93.88
2023-01-23T10:12:04.291Z,92.57
2023-01-23T10:17:15.932Z,92.46
2023-01-23T10:22:31.634Z,92.85
2023-01-23T10:27:35.847Z,92.54
2023-01-23T10:32:46.889Z,92.59
2023-01-23T10:37:54.139Z,92.68
2023-01-23T10:43:02.372Z,92.45
2023-01-23T10:48:30.212Z,92.04
2023-01-23T10:53:32.416Z,92.18
2023-01-23T10:58:39.691Z,92.96
2023-01-23T11:03:46.164Z,92.02
2023-01-23T11:08:55.525Z,91.17
2023-01-23T11:14:07.928Z,91.19
2023-01-23T11:19:18.711Z,90.75
2023-01-23T11:24:39.296Z,89.89
2023-01-23T11:30:03.331Z,88.77
2023-01-23T11:35:15.057Z,89.26
2023-01-23T11:40:20.408Z,89.40
2023-01-23T11:45:39.073Z,88.36
2023-01-23T11:50:55.350Z,89.20
2023-01-23T11:56:23.999Z,89.82
2023-01-23T12:01:31.440Z,89.41
2023-01-23T12:06:44.715Z,88.07
2023-01-23T12:12:04.632Z,88.17
2023-01-23T12:17:22.315Z,88.12
2023-01-23T12:22:35.724Z,87.70
2023-01-23T12:27:42.711Z,87.94
2023-01-23T12:33:00.903Z,87.70
2023-01-23T12:38:24.303Z,87.06
2023-01-23T12:43:36.796Z,86.70
2023-01-23T12:48:45.877Z,87.31
2023-01-23T12:53:55.321Z,85.93
2023-01-23T12:59:06.409Z,86.57
2023-01-23T13:04:22.202Z,87.22
2023-01-23T13:09:34.917Z,86.90
2023-01-23T13:15:00.716Z,87.17
2023-01-23T13:20:24.037Z,87.71
2023-01-23T13:25:27.741Z,86.96
2023-01-23T13:30:43.305Z,87.81
2023-01-23T13:35:52.946Z,87.71
2023-01-23T13:41:30.100Z,87.09
2023-01-23T14:24:02.081Z,86.75
2023-01-23T14:29:20.444Z,87.07
2023-01-23T14:34:24.581Z,86.25
2023-01-23T14:39:28.897Z,86.53
2023-01-23T14:44:39.339Z,86.23
2023-01-23T14:49:41.694Z,86.82
2023-01-23T14:54:53.427Z,87.12
2023-01-23T14:59:59.023Z,87.21
2023-01-23T15:05:08.214Z,87.26
2023-01-23T15:10:15.027Z,87.35
2023-01-23T15:15:21.372Z,86.38
2023-01-23T15:20:32.626Z,86.97
2023-01-23T15:25:34.712Z,87.40
2023-01-23T15:30:46.276Z,86.32
2023-01-23T15:35:49.059Z,86.46
2023-01-23T15:40:51.319Z,86.18
2023-01-23T15:45:54.856Z,86.49
2023-01-23T15:50:57.028Z,86.46
2023-01-23T15:56:00.857Z,86.09
2023-01-23T16:01:05.050Z,85.99
2023-01-23T16:06:11.561Z,85.72
2023-01-23T16:11:13.824Z,86.58
2023-01-23T16:16:18.887Z,85.31
2023-01-23T16:21:27.627Z,86.11
2023-01-23T16:26:30.370Z,86.51
2023-01-23T16:31:36.540Z,86.35
2023-01-23T16:36:39.709Z,86.18
2023-01-23T16:41:41.635Z,87.19
2023-01-23T16:46:45.769Z,86.78
2023-01-23T16:51:56.585Z,86.41
2023-01-23T16:56:58.963Z,86.75
2023-01-23T17:02:08.184Z,87.04
2023-01-23T17:07:13.816Z,87.16
2023-01-23T17:12:18.611Z,87.22
2023-01-23T17:17:28.049Z,87.30
2023-01-23T17:22:34.245Z,86.70
2023-01-23T17:27:44.810Z,87.04
2023-01-23T17:32:52.247Z,87.46
2023-01-23T17:37:54.855Z,88.01
2023-01-23T17:42:56.905Z,87.54
2023-01-23T17:48:00.383Z,87.64
2023-01-23T17:53:02.511Z,88.80
2023-01-23T17:58:04.255Z,88.53
2023-01-23T18:03:11.817Z,88.42
2023-01-23T18:08:15.344Z,88.08
2023-01-23T18:13:20.308Z,88.29
2023-01-23T18:18:29.448Z,88.39
2023-01-23T18:23:32.554Z,86.99
2023-01-23T18:28:42.592Z,86.54
2023-01-23T18:34:04.579Z,86.17
2023-01-23T18:39:22.283Z,86.39
2023-01-23T18:44:26.184Z,86.39
2023-01-23T18:49:32.874Z,86.32
2023-01-23T18:54:43.109Z,86.94
2023-01-23T18:59:49.537Z,87.17
2023-01-23T19:04:58.315Z,86.67
2023-01-23T19:10:00.425Z,86.82
2023-01-23T19:15:10.983Z,86.86
2023-01-23T19:20:23.711Z,87.34
2023-01-23T19:25:25.880Z,86.58
2023-01-23T19:30:28.534Z,86.98
2023-01-23T19:35:32.121Z,86.98
2023-01-23T19:40:35.002Z,86.28
2023-01-23T19:45:37.359Z,86.09
2023-01-23T19:50:40.725Z,86.64
2023-01-23T19:55:43.054Z,86.87
2023-01-23T20:00:45.064Z,86.80
2023-01-23T20:05:48.178Z,85.80
2023-01-23T20:10:50.355Z,86.08
2023-01-23T20:15:52.178Z,86.59
2023-01-23T20:20:59.587Z,86.13
2023-01-23T20:26:02.511Z,86.29
2023-01-23T20:31:06.740Z,86.61
2023-01-23T20:36:10.999Z,87.09
2023-01-23T20:41:15.087Z,86.58
2023-01-23T20:46:17.112Z,86.33
2023-01-23T20:51:20.287Z,86.38
2023-01-23T20:56:22.195Z,85.89
2023-01-23T21:01:27.566Z,86.43
2023-01-23T21:06:31.018Z,86.30
2023-01-23T21:11:32.852Z,86.67
2023-01-23T21:16:35.500Z,86.49
2023-01-23T21:21:38.786Z,86.30
2023-01-23T21:26:40.721Z,86.75
2023-01-23T21:31:43.376Z,85.82
2023-01-23T21:36:47.124Z,85.51
2023-01-23T21:41:48.994Z,85.74
2023-01-23T21:46:50.687Z,85.06
2023-01-23T21:51:54.229Z,84.45
2023-01-23T21:56:55.991Z,84.87
2023-01-23T22:01:58.053Z,85.14
2023-01-23T22:07:01.616Z,85.58
2023-01-23T22:12:03.557Z,85.03
2023-01-23T22:17:05.688Z,85.42
2023-01-23T22:22:09.611Z,85.14
2023-01-23T22:27:11.365Z,85.27
2023-01-23T22:32:13.824Z,84.98
2023-01-23T22:37:17.716Z,85.50
2023-01-23T22:42:19.845Z,85.65
2023-01-23T22:47:22.001Z,86.74
2023-01-23T22:52:25.192Z,87.24
2023-01-23T22:57:26.869Z,87.41
2023-01-23T23:02:29.065Z,87.71
2023-01-23T23:07:32.633Z,87.41
2023-01-23T23:12:35.023Z,87.16
2023-01-23T23:17:36.784Z,87.25
2023-01-23T23:22:42.423Z,87.51
2023-01-23T23:27:44.132Z,88.41
2023-01-23T23:32:46.125Z,88.39
2023-01-23T23:37:49.452Z,88.38
2023-01-23T23:42:51.642Z,88.34
2023-01-23T23:47:53.857Z,88.36
2023-01-23T23:52:57.169Z,88.76
2023-01-23T23:57:59.328Z,88.71
